METAR AND TAF INFORMATION
METAR FOR SBJV
ADDS - METARS form results

(0020 UTC 26 October 2021)
Data provider http://aviationweather.gov/metar/data/
 
METAR text: SBJV 260000Z 32003KT 280V360 9999 FEW025 20/17 Q1019
Conditions at: SBJV (JOINVILLE , BR) observed 0000 UTC 26 October 2021
Temperature: 20.0°C (68°F)
Dewpoint: 17.0°C (63°F) [RH = 83%]
Pressure (altimeter): 30.09 inches Hg (1019.0 mb)
Winds: from the NW (320 degrees) at 3 MPH (3 knots; 1.5 m/s)
Visibility: 6 or more miles (10+ km)
Ceiling: at least 12,000 feet AGL
Clouds: few clouds at 2500 feet AGL
Weather: no significant weather observed at this time

 AIRPORT MAP

 RUNWAY INFORMATION
Runway 15 Runway length 5381 ft Runway width 148 ft
Runway elevation 0 ft Runway displaced threshold 330 ft Runway heading 0
Runway 33 Runway length 5381 ft Runway width 148 ft
Runway elevation 0 ft Runway displaced threshold 0 ft Runway heading 0

 AIRPORT FREQUENCIES
Type AFIS Name TWR Frequency 118 MHZ

 AIRPORT NEAR NAVIGATION AIDS
Type NDB Name Gabi Frequency 245 KHZ
Type VOR-DME Name Joinville Frequency 115100 KHZ